Time;durP1;ratioP1;P1;durP2;ratioP2;P2;SDS_P1;SDS_P2;PMS_P1;PMS_P2;Temp;Humidity;BMP_temperature;BMP_pressure;BME280_temperature;BME280_humidity;BME280_pressure;Samples;Min_cycle;Max_cycle;Signal;HPM_P1;HPM_P2
2022/11/08 00:02:12;;;;;;;6.73;1.30;;;12.70;99.90;;;;;;4986146;28;20184;-76
2022/11/08 00:04:39;;;;;;;1.83;1.10;;;12.60;99.90;;;;;;4995707;28;20191;-76
2022/11/08 00:15:21;;;;;;;2.43;1.43;;;12.50;99.90;;;;;;5016821;28;20189;-76
2022/11/08 00:17:48;;;;;;;2.40;1.20;;;12.50;99.90;;;;;;4992085;28;20227;-76
2022/11/08 00:20:15;;;;;;;4.93;1.73;;;12.50;99.90;;;;;;5009346;28;20193;-76
2022/11/08 00:22:42;;;;;;;4.60;1.70;;;12.50;99.90;;;;;;5006739;28;21168;-76
2022/11/08 00:25:10;;;;;;;5.07;1.47;;;12.60;99.90;;;;;;4989433;28;20208;-76
2022/11/08 00:27:36;;;;;;;2.97;1.40;;;12.70;99.90;;;;;;5009727;28;20208;-76
2022/11/08 00:30:05;;;;;;;5.73;1.50;;;12.80;99.90;;;;;;4990314;28;20290;-76
2022/11/08 00:32:31;;;;;;;4.03;1.67;;;12.80;99.90;;;;;;5018615;28;20184;-76
2022/11/08 00:35:00;;;;;;;2.43;1.50;;;12.80;99.90;;;;;;4979713;28;20184;-76
2022/11/08 00:37:27;;;;;;;3.47;1.50;;;12.80;99.90;;;;;;4990277;28;20197;-76
2022/11/08 00:39:53;;;;;;;4.00;1.80;;;12.80;99.90;;;;;;4990484;28;20200;-76
2022/11/08 00:42:19;;;;;;;5.23;1.80;;;12.80;99.90;;;;;;5008850;28;20260;-76
2022/11/08 00:44:47;;;;;;;6.57;1.97;;;12.80;99.90;;;;;;5005387;28;20368;-76
2022/11/08 00:47:13;;;;;;;5.10;1.90;;;12.80;99.90;;;;;;4988737;28;20216;-76
2022/11/08 00:49:39;;;;;;;3.10;1.40;;;12.70;99.90;;;;;;5009107;28;20256;-77
2022/11/08 00:52:06;;;;;;;5.50;1.73;;;12.70;99.90;;;;;;5007592;28;20276;-76
2022/11/08 00:54:33;;;;;;;2.43;1.47;;;12.70;99.90;;;;;;5008779;28;20185;-76
2022/11/08 00:57:01;;;;;;;5.40;1.60;;;12.60;99.90;;;;;;4984328;28;20576;-76
2022/11/08 00:59:28;;;;;;;8.83;1.63;;;12.50;99.90;;;;;;4976707;28;20273;-76
2022/11/08 01:01:54;;;;;;;8.33;1.57;;;12.50;99.90;;;;;;5005801;28;20185;-76
2022/11/08 01:04:21;;;;;;;2.60;1.60;;;12.50;99.90;;;;;;4989174;28;20196;-76
2022/11/08 01:06:49;;;;;;;4.10;1.43;;;12.50;99.90;;;;;;5008940;28;20209;-76
2022/11/08 01:09:16;;;;;;;4.40;1.47;;;12.40;99.90;;;;;;5008650;28;20638;-76
2022/11/08 01:11:45;;;;;;;5.87;1.60;;;12.40;99.90;;;;;;5006749;28;20465;-76
2022/11/08 01:14:13;;;;;;;2.33;1.30;;;12.40;99.90;;;;;;5013661;28;20188;-76
2022/11/08 01:16:41;;;;;;;4.00;1.27;;;12.30;99.90;;;;;;5005159;28;20219;-76
2022/11/08 01:19:08;;;;;;;5.43;1.43;;;12.30;99.90;;;;;;5013584;28;20196;-76
2022/11/08 01:21:36;;;;;;;2.07;1.20;;;12.30;99.90;;;;;;5008074;28;20283;-76
2022/11/08 01:24:02;;;;;;;4.97;1.33;;;12.30;99.90;;;;;;5012546;28;20199;-76
2022/11/08 01:26:29;;;;;;;6.00;1.43;;;12.30;99.90;;;;;;4985191;28;20567;-76
2022/11/08 01:28:57;;;;;;;3.57;1.30;;;12.20;99.90;;;;;;4979338;28;20188;-76
2022/11/08 01:31:30;;;;;;;2.20;1.30;;;12.30;99.90;;;;;;4991131;28;20242;-76
2022/11/08 01:33:59;;;;;;;2.93;1.50;;;12.20;99.90;;;;;;4988334;28;20188;-76
2022/11/08 01:36:28;;;;;;;2.23;1.37;;;12.30;99.90;;;;;;4988823;28;20292;-76
2022/11/08 01:38:57;;;;;;;2.67;1.30;;;12.30;99.90;;;;;;5008995;28;20172;-76
2022/11/08 01:41:26;;;;;;;4.97;1.50;;;12.20;99.90;;;;;;4992798;28;20184;-76
2022/11/08 01:43:58;;;;;;;2.57;1.40;;;12.20;99.90;;;;;;4998039;28;20189;-76
2022/11/08 01:46:34;;;;;;;2.57;1.30;;;12.20;99.90;;;;;;5006547;28;20286;-76
2022/11/08 01:49:34;;;;;;;5.83;1.60;;;12.30;99.90;;;;;;4994513;28;20184;-76
2022/11/08 01:52:13;;;;;;;2.47;1.30;;;12.30;99.90;;;;;;5009235;28;20239;-76
2022/11/08 01:55:27;;;;;;;3.33;1.40;;;12.40;99.90;;;;;;4986795;28;20196;-76
2022/11/08 01:58:16;;;;;;;5.90;1.80;;;12.40;99.90;;;;;;4978311;28;20866;-76
2022/11/08 02:00:43;;;;;;;2.90;1.50;;;12.40;99.90;;;;;;5001821;28;20590;-76
2022/11/08 02:03:18;;;;;;;2.70;1.60;;;12.40;99.90;;;;;;4988412;28;20193;-76
2022/11/08 02:05:46;;;;;;;3.37;1.63;;;12.40;99.90;;;;;;4982973;28;20196;-76
2022/11/08 02:08:43;;;;;;;3.40;1.90;;;12.30;99.90;;;;;;4990605;28;20201;-77
2022/11/08 02:11:15;;;;;;;3.27;1.43;;;12.40;99.90;;;;;;5006996;28;20738;-76
2022/11/08 02:13:41;;;;;;;3.07;1.30;;;12.30;99.90;;;;;;5005697;28;20275;-76
2022/11/08 02:16:14;;;;;;;2.43;1.47;;;12.30;99.90;;;;;;5011702;28;20183;-76
2022/11/08 02:18:46;;;;;;;3.37;1.70;;;12.40;99.90;;;;;;5007533;28;20192;-76
2022/11/08 02:21:19;;;;;;;3.53;1.40;;;12.40;99.90;;;;;;4994202;28;20795;-75
2022/11/08 02:23:54;;;;;;;3.37;1.50;;;12.40;99.90;;;;;;5004744;28;20523;-76
2022/11/08 02:26:30;;;;;;;3.00;1.50;;;12.30;99.90;;;;;;5012395;28;20212;-77
2022/11/08 02:28:56;;;;;;;3.43;1.33;;;12.40;99.90;;;;;;5006166;28;20193;-76
2022/11/08 02:31:22;;;;;;;2.40;1.37;;;12.40;99.90;;;;;;5008407;28;20195;-76
2022/11/08 02:33:49;;;;;;;2.67;1.60;;;12.40;99.90;;;;;;5008964;28;20184;-76
2022/11/08 02:36:21;;;;;;;5.50;1.53;;;12.40;99.90;;;;;;5007693;28;20191;-76
2022/11/08 02:38:55;;;;;;;2.63;1.47;;;12.30;99.90;;;;;;4976174;28;20191;-76
2022/11/08 02:41:22;;;;;;;5.67;1.70;;;12.30;99.90;;;;;;5011464;28;20531;-76
2022/11/08 02:43:49;;;;;;;3.83;1.30;;;12.30;99.90;;;;;;4975677;28;20213;-76
2022/11/08 02:46:16;;;;;;;2.53;1.40;;;12.20;99.90;;;;;;5010509;28;20271;-76
2022/11/08 02:48:42;;;;;;;2.30;1.17;;;12.20;99.90;;;;;;4993130;28;20189;-76
2022/11/08 02:51:08;;;;;;;2.30;1.30;;;12.20;99.90;;;;;;5009445;28;20195;-76
2022/11/08 02:53:35;;;;;;;2.60;1.43;;;12.20;99.90;;;;;;5019016;28;20653;-76
2022/11/08 02:56:01;;;;;;;2.37;1.27;;;12.20;99.90;;;;;;5009756;28;20200;-76
2022/11/08 02:58:28;;;;;;;2.30;1.23;;;12.10;99.90;;;;;;5012172;28;20610;-76
2022/11/08 03:00:54;;;;;;;1.83;1.10;;;12.10;99.90;;;;;;5020400;28;20247;-76
2022/11/08 03:03:20;;;;;;;2.57;1.03;;;12.10;99.90;;;;;;5015844;28;20211;-77
2022/11/08 03:05:48;;;;;;;2.70;1.00;;;12.10;99.90;;;;;;4991509;28;20193;-76
2022/11/08 03:08:14;;;;;;;5.07;0.93;;;12.10;99.90;;;;;;5010141;28;20751;-76
2022/11/08 03:10:41;;;;;;;6.57;1.23;;;12.00;99.90;;;;;;4983641;28;20382;-76
2022/11/08 03:13:07;;;;;;;2.60;1.10;;;12.00;99.90;;;;;;4989888;28;20189;-76
2022/11/08 03:15:34;;;;;;;2.43;0.90;;;12.00;99.90;;;;;;5008750;28;20184;-76
2022/11/08 03:18:01;;;;;;;2.00;1.00;;;12.00;99.90;;;;;;4992389;28;20192;-76
2022/11/08 03:20:28;;;;;;;2.13;1.10;;;12.00;99.90;;;;;;4991551;28;20423;-76
2022/11/08 03:22:59;;;;;;;3.53;1.07;;;12.00;99.90;;;;;;5009100;28;20209;-76
2022/11/08 03:25:26;;;;;;;1.93;1.07;;;12.00;99.90;;;;;;4998583;28;20181;-76
2022/11/08 03:27:52;;;;;;;3.10;1.00;;;12.00;99.90;;;;;;4992003;28;20240;-76
2022/11/08 03:30:19;;;;;;;3.23;0.90;;;12.00;99.90;;;;;;5002133;28;20735;-76
2022/11/08 03:32:49;;;;;;;4.40;1.00;;;12.00;99.90;;;;;;4974771;28;20181;-76
2022/11/08 03:35:16;;;;;;;4.23;1.20;;;11.90;99.90;;;;;;4985613;28;20288;-76
2022/11/08 03:37:55;;;;;;;2.40;1.03;;;11.90;99.90;;;;;;5004610;28;20573;-76
2022/11/08 03:40:24;;;;;;;2.57;1.33;;;11.90;99.90;;;;;;4999737;28;20578;-76
2022/11/08 03:42:50;;;;;;;4.77;1.33;;;11.90;99.90;;;;;;4986882;28;20215;-76
2022/11/08 03:45:17;;;;;;;4.27;1.90;;;11.80;99.90;;;;;;5009225;28;20199;-76
2022/11/08 03:47:46;;;;;;;6.57;1.80;;;11.80;99.90;;;;;;5001300;28;20216;-76
2022/11/08 03:50:15;;;;;;;2.13;1.50;;;11.90;99.90;;;;;;4989701;28;20197;-76
2022/11/08 03:52:49;;;;;;;2.60;1.67;;;11.90;99.90;;;;;;4994851;28;20173;-77
2022/11/08 03:55:19;;;;;;;2.40;1.50;;;11.90;99.90;;;;;;5008982;28;20191;-76
2022/11/08 03:57:48;;;;;;;3.47;1.60;;;11.90;99.90;;;;;;5011365;28;20692;-76
2022/11/08 04:00:18;;;;;;;3.13;1.80;;;11.90;99.90;;;;;;4990721;28;20215;-76
2022/11/08 04:02:45;;;;;;;3.33;1.67;;;11.90;99.90;;;;;;4989081;28;20283;-77
2022/11/08 04:05:14;;;;;;;4.37;1.70;;;11.90;99.90;;;;;;4992980;28;20284;-76
2022/11/08 04:07:41;;;;;;;2.57;1.77;;;11.90;99.90;;;;;;5019083;28;20203;-76
2022/11/08 04:10:11;;;;;;;6.00;2.03;;;11.90;99.90;;;;;;5013377;28;20275;-76
2022/11/08 04:15:28;;;;;;;1.83;1.63;;;11.90;99.90;;;;;;4993669;28;20193;-76
2022/11/08 04:23:35;;;;;;;3.07;2.23;;;11.90;99.90;;;;;;5007999;28;20311;-76
2022/11/08 04:26:10;;;;;;;7.07;2.80;;;11.90;99.90;;;;;;4992613;28;20347;-76
2022/11/08 04:28:40;;;;;;;8.80;3.03;;;11.90;99.90;;;;;;5006967;28;20184;-76
2022/11/08 04:31:14;;;;;;;5.97;3.13;;;11.90;99.90;;;;;;5007894;28;20538;-76
2022/11/08 04:33:41;;;;;;;7.73;3.03;;;11.90;99.90;;;;;;4975007;28;20637;-77
2022/11/08 04:36:13;;;;;;;6.67;3.80;;;11.90;99.90;;;;;;4992667;28;20196;-76
2022/11/08 04:38:40;;;;;;;6.30;3.40;;;11.90;99.90;;;;;;4991070;28;20203;-76
2022/11/08 04:41:14;;;;;;;5.97;3.63;;;11.90;99.90;;;;;;5011221;28;20662;-76
2022/11/08 04:43:41;;;;;;;10.40;4.13;;;11.90;99.90;;;;;;5008216;28;20264;-77
2022/11/08 04:46:15;;;;;;;4.53;3.70;;;11.80;99.90;;;;;;5013574;28;20196;-76
2022/11/08 04:48:43;;;;;;;8.10;3.67;;;11.80;99.90;;;;;;5019794;28;20200;-76
2022/11/08 04:51:25;;;;;;;5.33;3.80;;;11.90;99.90;;;;;;5010641;28;20550;-76
2022/11/08 04:53:58;;;;;;;6.13;3.80;;;11.90;99.90;;;;;;5005728;28;20283;-76
2022/11/08 04:56:29;;;;;;;4.60;3.73;;;11.90;99.90;;;;;;5013006;28;20185;-76
2022/11/08 04:58:59;;;;;;;5.40;3.57;;;12.00;99.90;;;;;;5008150;28;20189;-76
2022/11/08 05:01:30;;;;;;;5.67;3.43;;;12.00;99.90;;;;;;5011630;28;20199;-76
2022/11/08 05:03:57;;;;;;;3.60;3.20;;;12.00;99.90;;;;;;5002538;28;20184;-76
2022/11/08 05:06:32;;;;;;;6.93;3.77;;;12.10;99.90;;;;;;5007712;28;20547;-77
2022/11/08 05:09:00;;;;;;;4.27;3.40;;;12.10;99.90;;;;;;5009178;28;20516;-76
2022/11/08 05:11:29;;;;;;;10.50;4.13;;;12.10;99.90;;;;;;4991200;28;20190;-76
2022/11/08 05:13:56;;;;;;;8.80;4.03;;;12.10;99.90;;;;;;5007905;28;20188;-77
2022/11/08 05:16:31;;;;;;;4.90;3.70;;;12.10;99.90;;;;;;5020073;28;20195;-77
2022/11/08 05:18:58;;;;;;;7.33;3.70;;;12.10;99.90;;;;;;4990129;28;20188;-76
2022/11/08 05:24:15;;;;;;;5.20;3.67;;;12.10;99.90;;;;;;5012052;28;20858;-76
2022/11/08 05:26:45;;;;;;;8.03;4.20;;;12.10;99.90;;;;;;5008455;28;20220;-76
2022/11/08 05:29:14;;;;;;;6.90;3.80;;;12.20;99.90;;;;;;5011192;28;20199;-77
2022/11/08 05:31:41;;;;;;;6.10;3.90;;;12.30;99.90;;;;;;5000733;28;20207;-76
2022/11/08 05:34:07;;;;;;;6.13;4.50;;;12.30;99.90;;;;;;5007941;28;20189;-76
2022/11/08 05:36:34;;;;;;;6.00;4.23;;;12.30;99.90;;;;;;5008683;28;20187;-77
2022/11/08 05:39:00;;;;;;;6.00;3.47;;;12.40;99.90;;;;;;5005816;28;20197;-77
2022/11/08 05:41:26;;;;;;;6.47;3.90;;;12.50;99.90;;;;;;5006526;28;20255;-76
2022/11/08 05:43:55;;;;;;;9.53;4.43;;;12.50;99.90;;;;;;5017607;28;20325;-76
2022/11/08 05:46:23;;;;;;;8.07;4.23;;;12.60;99.90;;;;;;5009072;28;20576;-76
2022/11/08 05:48:50;;;;;;;6.97;4.20;;;12.60;99.90;;;;;;4990434;28;20189;-76
2022/11/08 05:51:18;;;;;;;8.50;4.80;;;12.70;99.90;;;;;;5008310;28;20181;-76
2022/11/08 05:53:47;;;;;;;7.30;4.63;;;12.70;99.90;;;;;;5008374;28;21024;-76
2022/11/08 05:56:14;;;;;;;4.40;3.97;;;12.80;99.90;;;;;;4988245;28;20248;-77
2022/11/08 05:58:40;;;;;;;5.93;4.10;;;12.80;99.90;;;;;;4988422;28;20188;-76
2022/11/08 06:01:15;;;;;;;6.33;4.60;;;12.90;99.90;;;;;;5009544;28;20699;-77
2022/11/08 06:03:44;;;;;;;7.67;3.80;;;12.90;99.90;;;;;;5010930;28;20580;-77
2022/11/08 06:06:15;;;;;;;5.07;3.67;;;12.90;99.90;;;;;;4987411;28;20291;-77
2022/11/08 06:08:41;;;;;;;5.67;3.60;;;13.00;99.90;;;;;;5014588;28;20620;-77
2022/11/08 06:11:15;;;;;;;6.87;3.80;;;13.10;99.90;;;;;;5009949;28;20197;-77
2022/11/08 06:13:42;;;;;;;5.13;3.87;;;13.10;99.90;;;;;;4984010;28;20199;-77
2022/11/08 06:16:17;;;;;;;9.63;4.23;;;13.10;99.90;;;;;;5004992;28;20180;-77
2022/11/08 06:18:44;;;;;;;5.33;3.80;;;13.20;99.90;;;;;;4989011;28;20208;-77
2022/11/08 06:21:18;;;;;;;8.30;3.93;;;13.20;99.90;;;;;;5009113;28;20189;-76
2022/11/08 06:23:45;;;;;;;9.70;4.60;;;13.20;99.90;;;;;;4989112;28;20191;-76
2022/11/08 06:26:13;;;;;;;6.73;4.60;;;13.30;99.90;;;;;;5014819;28;20921;-77
2022/11/08 06:28:40;;;;;;;5.67;4.27;;;13.30;99.90;;;;;;4999128;28;20199;-77
2022/11/08 06:31:12;;;;;;;9.23;5.50;;;13.40;99.90;;;;;;5011602;28;20831;-77
2022/11/08 06:33:57;;;;;;;8.23;5.47;;;13.40;99.90;;;;;;5000103;28;20205;-77
2022/11/08 06:36:30;;;;;;;6.40;4.93;;;13.40;99.90;;;;;;5000928;28;20199;-77
2022/11/08 06:38:56;;;;;;;8.53;5.37;;;13.40;99.90;;;;;;5003185;28;20700;-77
2022/11/08 06:41:28;;;;;;;11.00;5.03;;;13.50;99.90;;;;;;4988264;28;20192;-77
2022/11/08 06:43:55;;;;;;;5.63;5.00;;;13.50;99.90;;;;;;4986359;28;20181;-77
2022/11/08 06:46:22;;;;;;;9.27;5.23;;;13.60;99.90;;;;;;5005682;28;20219;-77
2022/11/08 06:48:48;;;;;;;8.73;5.17;;;13.60;99.90;;;;;;5013406;28;20221;-77
2022/11/08 06:51:14;;;;;;;9.97;5.90;;;13.60;99.90;;;;;;4986452;28;20267;-77
2022/11/08 06:53:43;;;;;;;9.97;6.10;;;13.70;99.90;;;;;;5007243;28;20184;-77
2022/11/08 06:56:10;;;;;;;11.37;5.90;;;13.80;99.90;;;;;;4986831;28;20274;-77
2022/11/08 06:58:37;;;;;;;12.20;6.67;;;13.80;99.90;;;;;;4986048;28;20659;-77
2022/11/08 07:01:06;;;;;;;10.87;6.63;;;13.80;99.90;;;;;;4998924;28;20189;-77
2022/11/08 07:03:33;;;;;;;10.50;6.07;;;13.90;99.90;;;;;;4967973;28;20193;-77
2022/11/08 07:06:05;;;;;;;11.37;6.53;;;13.90;99.90;;;;;;5001311;28;20223;-76
2022/11/08 07:08:33;;;;;;;12.43;6.53;;;14.00;99.90;;;;;;5004594;28;20334;-77
2022/11/08 07:10:59;;;;;;;9.30;6.50;;;14.00;99.90;;;;;;5004946;28;20192;-77
2022/11/08 07:13:26;;;;;;;11.30;6.83;;;14.10;99.90;;;;;;5004788;28;20191;-76
2022/11/08 07:15:55;;;;;;;11.57;7.73;;;14.10;99.90;;;;;;5000759;28;20185;-77
2022/11/08 07:18:21;;;;;;;10.47;7.10;;;14.20;99.90;;;;;;5005313;28;20684;-77
2022/11/08 07:20:48;;;;;;;13.67;7.63;;;14.30;99.90;;;;;;5020634;28;20569;-77
2022/11/08 07:23:14;;;;;;;11.57;8.07;;;14.30;99.90;;;;;;5005120;28;20193;-77
2022/11/08 07:25:41;;;;;;;10.73;7.87;;;14.40;99.90;;;;;;5012578;28;20185;-77
2022/11/08 07:28:16;;;;;;;10.27;7.87;;;14.50;99.90;;;;;;5007966;28;20239;-77
2022/11/08 07:30:48;;;;;;;12.97;8.20;;;14.60;99.90;;;;;;5002375;28;20205;-77
2022/11/08 07:33:15;;;;;;;12.50;8.17;;;14.60;99.90;;;;;;4998171;28;20674;-77
2022/11/08 07:35:44;;;;;;;16.07;7.60;;;14.70;99.90;;;;;;4973433;28;20188;-77
2022/11/08 07:38:10;;;;;;;15.97;7.50;;;14.80;99.90;;;;;;4993598;28;20286;-77
2022/11/08 07:40:37;;;;;;;20.20;8.00;;;14.90;99.90;;;;;;5016094;28;20888;-77
2022/11/08 07:43:03;;;;;;;8.80;7.73;;;15.00;99.90;;;;;;4967373;28;20278;-77
2022/11/08 07:45:29;;;;;;;11.07;8.00;;;15.10;99.90;;;;;;4990793;28;20680;-77
2022/11/08 07:48:02;;;;;;;12.37;7.67;;;15.10;99.90;;;;;;4986441;28;20224;-77
2022/11/08 07:50:29;;;;;;;14.60;8.10;;;15.20;99.90;;;;;;4997953;28;20211;-77
2022/11/08 07:52:57;;;;;;;13.37;8.90;;;15.10;99.90;;;;;;4997165;28;20694;-77
2022/11/08 07:55:24;;;;;;;13.57;8.43;;;15.10;99.90;;;;;;5013431;28;20197;-77
2022/11/08 07:57:51;;;;;;;16.03;8.93;;;15.20;99.90;;;;;;4992603;28;20661;-77
2022/11/08 08:00:17;;;;;;;13.83;8.30;;;15.20;99.90;;;;;;4987276;28;20193;-77
2022/11/08 08:02:44;;;;;;;13.07;8.53;;;15.20;99.90;;;;;;4990729;28;20197;-77
2022/11/08 08:05:14;;;;;;;11.93;8.33;;;15.20;99.90;;;;;;5003913;28;20207;-77
2022/11/08 08:07:40;;;;;;;15.33;8.37;;;15.20;99.90;;;;;;5016698;28;20307;-77
2022/11/08 08:10:07;;;;;;;11.37;8.80;;;15.20;99.90;;;;;;5018462;28;20184;-77
2022/11/08 08:12:33;;;;;;;9.87;8.63;;;15.30;99.90;;;;;;4984982;28;20221;-77
2022/11/08 08:15:01;;;;;;;15.47;9.43;;;15.40;99.90;;;;;;4988629;28;20214;-77
2022/11/08 08:17:27;;;;;;;14.10;9.50;;;15.40;99.90;;;;;;4982329;28;20295;-77
2022/11/08 08:19:53;;;;;;;17.83;8.93;;;15.50;99.90;;;;;;4978592;28;20219;-77
2022/11/08 08:22:20;;;;;;;13.57;9.53;;;15.50;99.90;;;;;;5002822;28;20244;-77
2022/11/08 08:24:46;;;;;;;14.17;9.00;;;15.60;99.90;;;;;;5004990;28;20196;-77
2022/11/08 08:27:12;;;;;;;13.83;9.30;;;15.60;99.90;;;;;;4991117;28;20224;-77
2022/11/08 08:29:39;;;;;;;18.07;9.67;;;15.70;99.90;;;;;;4985619;28;20204;-77
2022/11/08 08:32:05;;;;;;;12.13;9.27;;;15.80;99.90;;;;;;5007520;28;20193;-78
2022/11/08 08:34:31;;;;;;;12.37;8.07;;;15.90;99.90;;;;;;5009762;28;20190;-77
2022/11/08 08:36:57;;;;;;;11.27;8.03;;;15.90;99.90;;;;;;4989297;28;20197;-77
2022/11/08 08:39:24;;;;;;;12.67;7.70;;;16.00;99.90;;;;;;5009734;28;20294;-77
2022/11/08 08:41:50;;;;;;;14.60;8.30;;;16.00;99.90;;;;;;5012888;28;20204;-77
2022/11/08 08:44:16;;;;;;;14.73;7.53;;;16.10;99.90;;;;;;5013274;28;21061;-77
2022/11/08 08:46:43;;;;;;;9.20;6.80;;;16.20;99.90;;;;;;4991417;28;20542;-76
2022/11/08 08:49:09;;;;;;;16.27;8.07;;;16.30;99.90;;;;;;4991967;28;20329;-76
2022/11/08 08:51:35;;;;;;;9.93;7.60;;;16.40;99.90;;;;;;5006717;28;20185;-76
2022/11/08 08:54:02;;;;;;;11.57;7.23;;;16.50;99.90;;;;;;5006780;28;20227;-77
2022/11/08 08:56:28;;;;;;;12.40;7.20;;;16.40;99.90;;;;;;5000432;28;20221;-76
2022/11/08 08:58:54;;;;;;;9.33;6.00;;;16.50;99.90;;;;;;5017547;28;20189;-76
2022/11/08 09:01:21;;;;;;;7.37;6.40;;;16.50;99.90;;;;;;4994896;28;20231;-77
2022/11/08 09:03:47;;;;;;;9.30;6.43;;;16.50;99.90;;;;;;5012477;28;20193;-76
2022/11/08 09:06:13;;;;;;;12.47;6.53;;;16.50;99.90;;;;;;5002088;28;20645;-76
2022/11/08 09:08:40;;;;;;;8.63;6.47;;;16.40;99.90;;;;;;5016824;28;20251;-76
2022/11/08 09:11:06;;;;;;;12.13;6.57;;;16.40;99.90;;;;;;5007455;28;20199;-77
2022/11/08 09:13:33;;;;;;;9.00;6.70;;;16.40;99.90;;;;;;4988544;28;20193;-77
2022/11/08 09:16:01;;;;;;;10.93;6.97;;;16.30;99.90;;;;;;4985332;28;20638;-77
2022/11/08 09:18:28;;;;;;;10.40;7.03;;;16.40;99.90;;;;;;5002642;28;20243;-76
2022/11/08 09:20:59;;;;;;;11.60;6.40;;;16.40;99.90;;;;;;5003676;28;20271;-76
2022/11/08 09:23:26;;;;;;;11.07;6.90;;;16.50;99.90;;;;;;5013694;28;20184;-77
2022/11/08 09:26:01;;;;;;;12.13;6.97;;;16.60;99.90;;;;;;4991171;28;20263;-77
2022/11/08 09:28:31;;;;;;;9.47;6.30;;;16.80;99.90;;;;;;4990137;28;20220;-77
2022/11/08 09:31:04;;;;;;;14.00;7.10;;;16.90;99.90;;;;;;5011482;28;20188;-76
2022/11/08 09:33:31;;;;;;;13.10;5.90;;;17.10;99.90;;;;;;4985669;28;20208;-77
2022/11/08 09:36:00;;;;;;;9.17;6.43;;;17.20;99.90;;;;;;5008550;28;20677;-77
2022/11/08 09:38:27;;;;;;;16.33;7.13;;;17.30;99.90;;;;;;4989592;28;20275;-77
2022/11/08 09:41:20;;;;;;;9.03;5.97;;;17.40;99.90;;;;;;4987463;28;20650;-77
2022/11/08 09:44:17;;;;;;;11.80;6.63;;;17.40;99.90;;;;;;4994802;28;20729;-77
2022/11/08 09:46:50;;;;;;;8.50;6.50;;;17.50;99.90;;;;;;5001295;28;20213;-77
2022/11/08 09:49:42;;;;;;;9.23;6.30;;;17.50;99.90;;;;;;5021111;28;20188;-76
2022/11/08 09:52:20;;;;;;;11.87;6.93;;;17.70;99.90;;;;;;4992641;28;20184;-77
2022/11/08 09:54:52;;;;;;;10.23;6.47;;;17.70;99.90;;;;;;5005470;28;20208;-77
2022/11/08 09:57:39;;;;;;;16.13;7.60;;;17.80;99.90;;;;;;5008223;28;20201;-77
2022/11/08 10:00:12;;;;;;;15.10;7.00;;;17.80;99.90;;;;;;5004231;28;20649;-77
2022/11/08 10:02:38;;;;;;;10.33;7.13;;;18.00;99.90;;;;;;4999045;28;20195;-77
2022/11/08 10:05:15;;;;;;;13.90;7.33;;;18.00;99.90;;;;;;5009406;28;20215;-77
2022/11/08 10:08:31;;;;;;;10.97;6.93;;;18.00;99.90;;;;;;5015355;28;20318;-77
2022/11/08 10:11:27;;;;;;;13.63;7.23;;;18.00;99.90;;;;;;4982664;28;20260;-77
2022/11/08 10:14:45;;;;;;;10.37;7.23;;;18.10;99.90;;;;;;4988920;28;20200;-77
2022/11/08 10:17:30;;;;;;;11.13;7.20;;;18.20;99.90;;;;;;5002014;28;20208;-77
2022/11/08 10:20:38;;;;;;;9.77;6.83;;;18.30;99.90;;;;;;5002143;28;20250;-77
2022/11/08 10:23:25;;;;;;;13.17;6.63;;;18.60;99.90;;;;;;4986610;28;20254;-78
2022/11/08 10:25:59;;;;;;;12.50;6.90;;;19.10;99.90;;;;;;5002305;28;20705;-77
2022/11/08 10:28:40;;;;;;;12.03;6.13;;;19.10;99.90;;;;;;5009561;28;20247;-77
2022/11/08 10:31:09;;;;;;;8.80;5.97;;;19.30;99.90;;;;;;5010164;28;20235;-77
2022/11/08 10:33:47;;;;;;;11.00;6.07;;;19.30;99.90;;;;;;5017475;28;20181;-78
2022/11/08 10:36:31;;;;;;;10.90;6.17;;;18.90;99.90;;;;;;5006657;28;20192;-78
2022/11/08 10:39:07;;;;;;;15.00;6.20;;;18.90;99.90;;;;;;4990594;28;20221;-77
2022/11/08 10:42:18;;;;;;;9.47;5.97;;;19.20;99.90;;;;;;5001573;28;20215;-76
2022/11/08 10:44:44;;;;;;;10.93;6.30;;;19.60;99.90;;;;;;4974231;28;20300;-77
2022/11/08 10:47:28;;;;;;;12.17;5.53;;;19.60;99.90;;;;;;4987345;28;20200;-77
2022/11/08 10:49:55;;;;;;;10.07;5.90;;;19.80;99.90;;;;;;5013005;28;20195;-77
2022/11/08 10:52:44;;;;;;;11.13;6.23;;;19.90;99.90;;;;;;4985095;28;20270;-77
2022/11/08 10:55:29;;;;;;;10.30;5.50;;;20.10;99.90;;;;;;4973130;28;20189;-77
2022/11/08 10:57:56;;;;;;;11.47;6.10;;;20.10;99.90;;;;;;4990147;28;20185;-77
2022/11/08 11:00:24;;;;;;;8.70;5.80;;;20.20;99.90;;;;;;4989725;28;20194;-77
2022/11/08 11:03:27;;;;;;;11.20;6.13;;;20.60;99.90;;;;;;5013728;28;20737;-77
2022/11/08 11:06:01;;;;;;;13.20;5.63;;;20.20;99.90;;;;;;4993077;28;20270;-77
2022/11/08 11:08:27;;;;;;;17.03;5.83;;;19.70;99.90;;;;;;5010887;28;20217;-77
2022/11/08 11:11:12;;;;;;;7.67;6.10;;;19.40;99.90;;;;;;4992150;28;20629;-77
2022/11/08 11:13:40;;;;;;;12.13;6.23;;;19.30;99.90;;;;;;5008219;28;20189;-77
2022/11/08 11:16:14;;;;;;;8.33;5.63;;;19.30;99.90;;;;;;4993105;28;20189;-78
2022/11/08 11:18:52;;;;;;;10.20;5.93;;;19.40;99.90;;;;;;5003273;28;20412;-77
2022/11/08 11:21:22;;;;;;;12.47;5.87;;;19.40;99.90;;;;;;4991495;28;20192;-78
2022/11/08 11:23:53;;;;;;;11.07;5.73;;;19.40;99.90;;;;;;4993205;28;20188;-77
2022/11/08 11:26:28;;;;;;;11.40;5.87;;;19.40;99.90;;;;;;4990812;28;20189;-77
2022/11/08 11:29:03;;;;;;;10.87;5.70;;;19.30;99.90;;;;;;5009562;28;20215;-77
2022/11/08 11:31:39;;;;;;;11.50;5.93;;;19.40;99.90;;;;;;5010526;28;20187;-77
2022/11/08 11:34:19;;;;;;;12.13;5.80;;;19.40;99.90;;;;;;4997958;28;20271;-77
2022/11/08 11:37:01;;;;;;;9.50;6.17;;;19.40;99.90;;;;;;5000798;28;20193;-77
2022/11/08 11:39:36;;;;;;;13.10;5.63;;;19.40;99.90;;;;;;4996193;28;20557;-78
2022/11/08 11:42:44;;;;;;;15.60;6.37;;;19.30;99.90;;;;;;5019455;28;20287;-77
2022/11/08 11:45:19;;;;;;;8.70;5.87;;;19.30;99.90;;;;;;4985665;28;20223;-77
2022/11/08 11:47:53;;;;;;;8.90;5.60;;;19.30;99.90;;;;;;5004502;28;20207;-77
2022/11/08 11:50:32;;;;;;;8.80;5.43;;;19.40;99.90;;;;;;5005511;28;20196;-78
2022/11/08 11:53:04;;;;;;;8.67;5.80;;;19.30;99.90;;;;;;4982548;28;20859;-77
2022/11/08 11:55:55;;;;;;;9.70;5.97;;;19.30;99.90;;;;;;4986931;28;20189;-77
2022/11/08 11:59:01;;;;;;;10.47;5.60;;;19.30;99.90;;;;;;5004047;28;20546;-78
2022/11/08 12:02:16;;;;;;;11.67;6.10;;;19.20;99.90;;;;;;4980486;28;21184;-77
2022/11/08 12:05:38;;;;;;;9.97;5.63;;;19.20;99.90;;;;;;5003274;28;20196;-77
2022/11/08 12:08:12;;;;;;;7.73;5.40;;;19.20;99.90;;;;;;4994260;28;20368;-77
2022/11/08 12:11:02;;;;;;;11.40;5.57;;;19.00;99.90;;;;;;5008596;28;20192;-77
2022/11/08 12:14:04;;;;;;;13.07;5.83;;;19.10;99.90;;;;;;5018744;28;20223;-77
2022/11/08 12:16:56;;;;;;;10.47;5.40;;;19.00;99.90;;;;;;5014569;28;20274;-77
2022/11/08 12:20:00;;;;;;;13.40;5.80;;;19.00;99.90;;;;;;5009865;28;20188;-77
2022/11/08 12:22:39;;;;;;;8.70;5.60;;;18.90;99.90;;;;;;4979798;28;20241;-77
2022/11/08 12:25:31;;;;;;;8.37;5.83;;;18.90;99.90;;;;;;5029797;28;20544;-77
2022/11/08 12:28:03;;;;;;;9.70;5.50;;;18.90;99.90;;;;;;5009964;28;20232;-77
2022/11/08 12:30:48;;;;;;;11.03;5.80;;;18.90;99.90;;;;;;5009792;28;20259;-78
2022/11/08 12:33:52;;;;;;;10.37;5.53;;;18.90;99.90;;;;;;5023119;28;20294;-77
2022/11/08 12:36:47;;;;;;;12.87;6.40;;;18.90;99.90;;;;;;5019431;28;20226;-76
2022/11/08 12:39:36;;;;;;;8.17;5.57;;;18.90;99.90;;;;;;5010312;28;20197;-77
2022/11/08 12:42:31;;;;;;;9.53;5.30;;;18.80;99.90;;;;;;5009095;28;20188;-77
2022/11/08 12:45:26;;;;;;;12.33;6.17;;;18.80;99.90;;;;;;5002274;28;20193;-77
2022/11/08 12:48:26;;;;;;;9.23;5.77;;;18.80;99.90;;;;;;4989509;28;20221;-77
2022/11/08 12:51:03;;;;;;;9.20;5.73;;;18.80;99.90;;;;;;5002259;28;20234;-77
2022/11/08 12:53:57;;;;;;;9.70;5.50;;;18.80;99.90;;;;;;4991672;28;20211;-76
2022/11/08 12:56:44;;;;;;;9.60;6.17;;;18.70;99.90;;;;;;4992095;28;20189;-77
2022/11/08 12:59:30;;;;;;;11.20;5.67;;;18.60;99.90;;;;;;5007631;28;20250;-76
2022/11/08 13:02:01;;;;;;;9.30;5.83;;;18.60;99.90;;;;;;5006734;28;20718;-77
2022/11/08 13:04:40;;;;;;;10.50;5.90;;;18.60;99.90;;;;;;5001746;28;20624;-77
2022/11/08 13:07:43;;;;;;;10.50;5.63;;;18.50;99.90;;;;;;5011352;28;20212;-77
2022/11/08 13:10:34;;;;;;;8.43;5.53;;;18.50;99.90;;;;;;4989753;28;20272;-77
2022/11/08 13:13:47;;;;;;;10.57;5.83;;;18.50;99.90;;;;;;5022841;28;20522;-77
2022/11/08 13:16:20;;;;;;;11.13;5.93;;;18.40;99.90;;;;;;5009396;28;20192;-77
2022/11/08 13:19:00;;;;;;;11.87;6.30;;;18.30;99.90;;;;;;4989660;28;20279;-77
2022/11/08 13:21:33;;;;;;;10.23;6.77;;;18.30;99.90;;;;;;4993934;28;20195;-77
2022/11/08 13:24:05;;;;;;;12.97;6.33;;;18.20;99.90;;;;;;4991253;28;20177;-77
2022/11/08 13:26:40;;;;;;;10.80;6.97;;;18.20;99.90;;;;;;5014897;28;20219;-77
2022/11/08 13:29:14;;;;;;;14.03;6.20;;;18.10;99.90;;;;;;4990725;28;20188;-77
2022/11/08 13:32:01;;;;;;;12.00;6.37;;;18.10;99.90;;;;;;5008164;28;20208;-77
2022/11/08 13:35:26;;;;;;;10.57;6.63;;;18.10;99.90;;;;;;5007849;28;20559;-77